Terminal Aerodrome Forecast
Issued by NWS Sterling, VA

Current Version | Previous Version | Text Only | Print | Product List | Glossary Off
Versions: 1 2 3 4 5 6 7 8 9 10 11 12 13 14 15 16 17 18 19

000
FTUS41 KLWX 231503 AAA
TAFMRB
TAF AMD
KMRB 231503Z 2315/2412 05005KT P6SM FEW045 SCT250
     FM232200 11004KT P6SM SCT045 BKN250
     FM240600 00000KT P6SM -RA SCT030 OVC040
     FM241000 VRB03KT P6SM -RA SCT025 OVC030=

USA.gov is the U.S. government's official web portal to all federal, state and local government web resources and services.